createdAt,value
2018-02-13T00:00:29.714Z,-0.40
2018-02-13T00:02:57.243Z,-0.50
2018-02-13T00:05:26.490Z,-0.60
2018-02-13T00:07:54.031Z,-0.70
2018-02-13T00:10:21.571Z,-0.70
2018-02-13T00:12:49.146Z,-0.70
2018-02-13T00:15:16.679Z,-0.80
2018-02-13T00:17:44.983Z,-1.00
2018-02-13T00:20:12.574Z,-1.00
2018-02-13T00:22:49.900Z,-1.00
2018-02-13T00:25:18.747Z,-1.20
2018-02-13T00:27:46.295Z,-1.20
2018-02-13T00:30:26.397Z,-1.30
2018-02-13T00:32:53.916Z,-1.30
2018-02-13T00:35:21.499Z,-1.30
2018-02-13T00:37:49.117Z,-1.40
2018-02-13T00:40:16.651Z,-1.40
2018-02-13T00:42:44.188Z,-1.40
2018-02-13T00:45:12.231Z,-1.40
2018-02-13T00:47:39.763Z,-1.50
2018-02-13T00:50:07.319Z,-1.50
2018-02-13T00:52:34.887Z,-1.50
2018-02-13T00:55:03.198Z,-1.60
2018-02-13T00:57:30.734Z,-1.60
2018-02-13T00:59:59.070Z,-1.80
2018-02-13T01:02:26.631Z,-1.80
2018-02-13T01:04:54.931Z,-1.90
2018-02-13T01:07:23.039Z,-1.90
2018-02-13T01:09:50.592Z,-1.80
2018-02-13T01:12:18.139Z,-1.90
2018-02-13T01:14:45.704Z,-2.00
2018-02-13T01:17:29.871Z,-2.00
2018-02-13T01:22:33.066Z,-2.00
2018-02-13T01:25:00.616Z,-2.00
2018-02-13T01:27:28.159Z,-2.10
2018-02-13T01:29:55.726Z,-2.10
2018-02-13T01:32:23.262Z,-2.10
2018-02-13T01:34:51.635Z,-2.20
2018-02-13T01:37:20.044Z,-2.20
2018-02-13T01:39:47.594Z,-2.20
2018-02-13T01:42:15.481Z,-2.10
2018-02-13T01:44:43.367Z,-2.10
2018-02-13T01:47:10.904Z,-2.00
2018-02-13T01:49:38.442Z,-2.10
2018-02-13T01:52:05.994Z,-2.00
2018-02-13T01:54:33.528Z,-2.00
2018-02-13T01:57:01.063Z,-2.00
2018-02-13T01:59:28.654Z,-2.00
2018-02-13T02:01:56.223Z,-2.00
2018-02-13T02:04:24.528Z,-2.00
2018-02-13T02:06:52.740Z,-2.00
2018-02-13T02:09:20.420Z,-2.00
2018-02-13T02:11:47.959Z,-2.00
2018-02-13T02:14:16.459Z,-2.00
2018-02-13T02:16:44.247Z,-2.20
2018-02-13T02:19:11.779Z,-2.30
2018-02-13T02:21:39.391Z,-2.30
2018-02-13T02:24:06.971Z,-2.30
2018-02-13T02:26:34.529Z,-2.30
2018-02-13T02:29:02.419Z,-2.30
2018-02-13T02:31:29.962Z,-2.30
2018-02-13T02:33:57.495Z,-2.30
2018-02-13T02:36:25.055Z,-2.40
2018-02-13T02:38:52.644Z,-2.40
2018-02-13T02:41:20.178Z,-2.40
2018-02-13T02:43:47.748Z,-2.40
2018-02-13T02:46:16.582Z,-2.40
2018-02-13T02:48:44.138Z,-2.40
2018-02-13T02:51:11.763Z,-2.30
2018-02-13T02:53:39.296Z,-2.30
2018-02-13T02:56:06.827Z,-2.30
2018-02-13T02:58:34.386Z,-2.20
2018-02-13T03:01:01.923Z,-2.20
2018-02-13T03:03:29.483Z,-2.20
2018-02-13T03:05:57.038Z,-2.20
2018-02-13T03:08:24.566Z,-2.20
2018-02-13T03:10:52.530Z,-2.10
2018-02-13T03:13:20.651Z,-2.00
2018-02-13T03:15:48.183Z,-2.00
2018-02-13T03:18:16.407Z,-2.10
2018-02-13T03:20:43.962Z,-2.10
2018-02-13T03:23:11.494Z,-2.10
2018-02-13T03:25:39.033Z,-2.00
2018-02-13T03:28:06.593Z,-2.10
2018-02-13T03:30:34.132Z,-2.10
2018-02-13T03:33:01.675Z,-2.10
2018-02-13T03:35:29.303Z,-2.10
2018-02-13T03:37:56.833Z,-2.20
2018-02-13T03:40:24.410Z,-2.20
2018-02-13T03:42:51.962Z,-2.30
2018-02-13T03:45:19.542Z,-2.30
2018-02-13T03:47:47.079Z,-2.30
2018-02-13T03:50:16.486Z,-2.40
2018-02-13T03:52:44.024Z,-2.40
2018-02-13T03:55:11.558Z,-2.40
2018-02-13T03:57:39.694Z,-2.50
2018-02-13T04:00:07.228Z,-2.50
2018-02-13T04:02:34.770Z,-2.50
2018-02-13T04:05:02.347Z,-2.50
2018-02-13T04:07:29.886Z,-2.50
2018-02-13T04:09:58.247Z,-2.60
2018-02-13T04:12:26.099Z,-2.60
2018-02-13T04:14:53.643Z,-2.70
2018-02-13T04:17:21.179Z,-2.70
2018-02-13T04:19:49.806Z,-2.70
2018-02-13T04:22:17.345Z,-2.70
2018-02-13T04:24:44.887Z,-2.70
2018-02-13T04:27:12.448Z,-2.80
2018-02-13T04:29:39.982Z,-2.70
2018-02-13T04:32:07.519Z,-2.70
2018-02-13T04:34:35.107Z,-2.80
2018-02-13T04:37:02.651Z,-2.80
2018-02-13T04:39:30.227Z,-2.70
2018-02-13T04:41:58.287Z,-2.70
2018-02-13T04:44:26.588Z,-2.70
2018-02-13T04:46:54.131Z,-2.70
2018-02-13T04:49:21.743Z,-2.70
2018-02-13T04:51:49.291Z,-2.70
2018-02-13T04:54:16.840Z,-2.70
2018-02-13T04:56:44.480Z,-2.70
2018-02-13T04:59:12.019Z,-2.60
2018-02-13T05:01:39.646Z,-2.60
2018-02-13T05:04:07.502Z,-2.60
2018-02-13T05:06:35.037Z,-2.70
2018-02-13T05:09:02.583Z,-2.70
2018-02-13T05:11:30.263Z,-2.70
2018-02-13T05:13:57.813Z,-2.70
2018-02-13T05:16:26.303Z,-2.70
2018-02-13T05:18:53.866Z,-2.70
2018-02-13T05:21:21.410Z,-2.80
2018-02-13T05:23:48.938Z,-2.80
2018-02-13T05:26:17.075Z,-2.80
2018-02-13T05:28:44.688Z,-2.80
2018-02-13T05:31:13.928Z,-2.90
2018-02-13T05:33:41.495Z,-2.90
2018-02-13T05:36:09.031Z,-2.90
2018-02-13T05:38:36.603Z,-2.90
2018-02-13T05:41:04.243Z,-2.90
2018-02-13T05:43:31.785Z,-2.90
2018-02-13T05:46:00.100Z,-3.00
2018-02-13T05:48:28.865Z,-3.00
2018-02-13T05:50:56.459Z,-3.00
2018-02-13T05:53:24.046Z,-3.00
2018-02-13T05:55:51.611Z,-3.00
2018-02-13T05:58:19.150Z,-3.10
2018-02-13T06:00:46.695Z,-3.10
2018-02-13T06:03:25.289Z,-3.10
2018-02-13T06:10:02.451Z,-3.20
2018-02-13T06:12:29.994Z,-3.30
2018-02-13T06:14:57.522Z,-3.30
2018-02-13T06:17:25.132Z,-3.30
2018-02-13T06:19:52.663Z,-3.30
2018-02-13T06:22:20.203Z,-3.30
2018-02-13T06:24:47.782Z,-3.40
2018-02-13T06:27:16.415Z,-3.40
2018-02-13T06:29:53.629Z,-3.40
2018-02-13T06:32:21.217Z,-3.40
2018-02-13T06:34:49.525Z,-3.40
2018-02-13T06:37:17.110Z,-3.40
2018-02-13T06:39:45.435Z,-3.40
2018-02-13T06:42:13.679Z,-3.40
2018-02-13T06:44:41.283Z,-3.40
2018-02-13T06:47:08.881Z,-3.30
2018-02-13T06:49:36.488Z,-3.20
2018-02-13T06:52:04.131Z,-3.10
2018-02-13T06:54:31.731Z,-3.10
2018-02-13T06:56:59.521Z,-3.00
2018-02-13T06:59:27.160Z,-2.90
2018-02-13T07:01:54.743Z,-2.90
2018-02-13T07:04:23.164Z,-2.80
2018-02-13T07:06:50.771Z,-2.80
2018-02-13T07:09:18.402Z,-2.70
2018-02-13T07:11:45.979Z,-2.70
2018-02-13T07:14:24.448Z,-2.70
2018-02-13T07:20:38.889Z,-2.70
2018-02-13T07:23:06.469Z,-2.70
2018-02-13T07:25:34.790Z,-2.60
2018-02-13T07:28:02.402Z,-2.60
2018-02-13T07:30:29.958Z,-2.60
2018-02-13T07:33:00.051Z,-2.50
2018-02-13T07:35:27.699Z,-2.40
2018-02-13T07:37:55.274Z,-2.40
2018-02-13T07:40:22.865Z,-2.40
2018-02-13T07:42:51.260Z,-2.20
2018-02-13T07:45:19.276Z,-2.20
2018-02-13T07:47:46.835Z,-2.20
2018-02-13T07:50:26.616Z,-2.10
2018-02-13T07:56:05.864Z,-2.10
2018-02-13T07:58:33.402Z,-2.10
2018-02-13T08:01:00.955Z,-2.00
2018-02-13T08:03:28.519Z,-1.90
2018-02-13T08:05:56.064Z,-1.80
2018-02-13T08:08:23.628Z,-1.70
2018-02-13T08:10:51.204Z,-1.70
2018-02-13T08:13:18.778Z,-1.50
2018-02-13T08:15:46.330Z,-1.30
2018-02-13T08:18:26.738Z,-0.40
2018-02-13T08:27:04.773Z,1.60
2018-02-13T08:29:33.075Z,11.40
2018-02-13T08:32:00.617Z,11.40
2018-02-13T08:34:29.271Z,13.70
2018-02-13T08:36:56.829Z,13.60
2018-02-13T08:39:24.410Z,14.30
2018-02-13T08:41:51.967Z,15.00
2018-02-13T08:44:19.511Z,15.60
2018-02-13T08:46:47.667Z,16.20
2018-02-13T08:49:17.299Z,16.10
2018-02-13T08:51:44.992Z,16.00
2018-02-13T08:54:12.534Z,15.80
2018-02-13T08:56:40.402Z,16.10
2018-02-13T08:59:07.943Z,16.50
2018-02-13T09:01:35.539Z,17.10
2018-02-13T09:04:03.864Z,16.50
2018-02-13T09:06:31.399Z,16.50
2018-02-13T09:08:58.947Z,16.40
2018-02-13T09:11:26.518Z,16.50
2018-02-13T09:13:54.067Z,16.70
2018-02-13T09:16:21.639Z,16.70
2018-02-13T09:18:50.271Z,16.30
2018-02-13T09:21:17.808Z,16.20
2018-02-13T09:23:45.343Z,16.10
2018-02-13T09:26:24.366Z,14.70
2018-02-13T09:32:00.159Z,14.70
2018-02-13T09:34:27.690Z,14.80
2018-02-13T09:36:55.247Z,15.00
2018-02-13T09:39:23.370Z,15.00
2018-02-13T09:41:50.918Z,14.80
2018-02-13T09:44:18.461Z,14.70
2018-02-13T09:46:46.021Z,15.50
2018-02-13T09:49:15.425Z,15.80
2018-02-13T09:51:43.359Z,15.70
2018-02-13T09:54:10.922Z,15.90
2018-02-13T09:56:38.695Z,15.70
2018-02-13T09:59:07.528Z,15.30
2018-02-13T10:01:35.394Z,15.30
2018-02-13T10:04:02.942Z,15.20
2018-02-13T10:06:30.484Z,14.90
2018-02-13T10:08:58.296Z,15.10
2018-02-13T10:11:25.830Z,15.40
2018-02-13T10:13:53.991Z,15.10
2018-02-13T10:16:21.559Z,13.80
2018-02-13T10:18:49.143Z,12.50
2018-02-13T10:21:16.786Z,11.90
2018-02-13T10:23:44.626Z,11.10
2018-02-13T10:26:12.167Z,10.60
2018-02-13T10:28:39.798Z,9.80
2018-02-13T10:31:07.364Z,9.50
2018-02-13T10:33:35.369Z,9.10
2018-02-13T10:36:02.899Z,8.40
2018-02-13T10:38:30.551Z,7.80
2018-02-13T10:40:58.067Z,7.30
2018-02-13T10:43:25.652Z,6.70
2018-02-13T10:45:53.259Z,6.10
2018-02-13T10:48:20.791Z,5.60
2018-02-13T10:50:48.322Z,5.40
2018-02-13T10:53:16.418Z,5.10
2018-02-13T10:55:43.950Z,4.80
2018-02-13T10:58:11.487Z,4.60
2018-02-13T11:03:48.081Z,4.20
2018-02-13T11:06:16.739Z,3.90
2018-02-13T11:08:44.271Z,3.60
2018-02-13T11:11:11.999Z,3.30
2018-02-13T11:13:39.565Z,3.30
2018-02-13T11:16:07.868Z,2.60
2018-02-13T11:18:35.411Z,2.60
2018-02-13T11:21:03.507Z,2.70
2018-02-13T11:23:31.047Z,2.80
2018-02-13T11:25:58.601Z,2.90
2018-02-13T11:28:26.229Z,2.90
2018-02-13T11:30:54.534Z,3.00
2018-02-13T11:33:22.086Z,3.00
2018-02-13T11:35:50.158Z,3.00
2018-02-13T11:38:17.688Z,3.00
2018-02-13T11:40:45.222Z,3.00
2018-02-13T11:43:15.256Z,2.90
2018-02-13T17:00:17.549Z,-0.50
2018-02-13T17:02:45.098Z,-0.50
2018-02-13T17:05:13.606Z,-0.60
2018-02-13T17:07:41.215Z,-0.60
2018-02-13T17:10:09.523Z,-0.70
2018-02-13T17:12:37.838Z,-0.60
2018-02-13T17:15:05.443Z,-0.60
2018-02-13T17:17:32.984Z,-0.70
2018-02-13T17:20:00.532Z,-0.70
2018-02-13T17:22:28.681Z,-0.80
2018-02-13T17:24:56.255Z,-0.80
2018-02-13T17:27:23.795Z,-0.80
2018-02-13T17:29:51.356Z,-0.90
2018-02-13T17:32:18.926Z,-0.90
2018-02-13T17:34:46.483Z,-0.90
2018-02-13T17:37:16.407Z,-0.90
2018-02-13T17:39:44.027Z,-0.90
2018-02-13T17:42:11.587Z,-0.90
2018-02-13T17:44:39.184Z,-1.00
2018-02-13T17:47:06.715Z,-1.00
2018-02-13T17:49:34.319Z,-1.00
2018-02-13T17:52:01.884Z,-1.00
2018-02-13T17:54:30.231Z,-1.10
2018-02-13T17:56:57.766Z,-1.10
2018-02-13T18:10:04.466Z,-1.20
2018-02-13T18:12:32.042Z,-1.30
2018-02-13T18:14:59.575Z,-1.30
2018-02-13T18:17:27.168Z,-1.30
2018-02-13T18:19:55.572Z,-1.30
2018-02-13T18:22:23.163Z,-1.40
2018-02-13T18:24:50.679Z,-1.40
2018-02-13T18:27:18.341Z,-1.40
2018-02-13T18:29:45.882Z,-1.40
2018-02-13T18:32:23.756Z,-1.40
2018-02-13T18:37:43.043Z,-1.50
2018-02-13T18:40:10.638Z,-1.60
2018-02-13T18:42:38.213Z,-1.60
2018-02-13T18:45:07.033Z,-1.70
2018-02-13T18:47:35.405Z,-1.70
2018-02-13T18:50:03.820Z,-1.80
2018-02-13T18:55:02.206Z,-1.80
2018-02-13T18:57:29.746Z,-1.80
2018-02-13T18:59:57.355Z,-1.80
2018-02-13T19:02:25.816Z,-1.90
2018-02-13T19:04:59.367Z,-1.90
2018-02-13T19:07:27.167Z,-1.90
2018-02-13T19:09:54.782Z,-1.90
2018-02-13T19:12:22.463Z,-1.90
2018-02-13T19:14:50.004Z,-1.90
2018-02-13T19:17:17.546Z,-1.90
2018-02-13T19:19:45.122Z,-2.00
2018-02-13T19:22:13.611Z,-2.00
2018-02-13T19:24:41.146Z,-2.10
2018-02-13T19:27:09.256Z,-2.00
2018-02-13T19:29:36.795Z,-2.10
2018-02-13T19:32:04.330Z,-2.10
2018-02-13T19:34:33.413Z,-2.10
2018-02-13T19:37:00.982Z,-2.10
2018-02-13T19:39:28.606Z,-2.10
2018-02-13T19:41:56.184Z,-2.10
2018-02-13T19:44:23.726Z,-2.20
2018-02-13T19:46:51.481Z,-2.20
2018-02-13T19:49:19.659Z,-2.20
2018-02-13T19:51:47.274Z,-2.20
2018-02-13T19:54:18.193Z,-2.30
2018-02-13T19:56:45.791Z,-2.20
2018-02-13T19:59:14.703Z,-2.20
2018-02-13T20:01:42.249Z,-2.30
2018-02-13T20:04:09.810Z,-2.30
2018-02-13T20:06:38.367Z,-2.30
2018-02-13T20:09:06.291Z,-2.30
2018-02-13T20:11:34.371Z,-2.20
2018-02-13T20:14:01.912Z,-2.30
2018-02-13T20:16:29.459Z,-2.30
2018-02-13T20:18:57.184Z,-2.30
2018-02-13T20:21:24.736Z,-2.40
2018-02-13T20:23:52.448Z,-2.40
2018-02-13T20:26:20.047Z,-2.40
2018-02-13T20:28:47.639Z,-2.40
2018-02-13T20:31:15.606Z,-2.40
2018-02-13T20:33:44.264Z,-2.50
2018-02-13T20:36:11.806Z,-2.50
2018-02-13T20:38:39.351Z,-2.50
2018-02-13T20:41:07.690Z,-2.50
2018-02-13T20:43:36.230Z,-2.70
2018-02-13T20:46:03.771Z,-2.70
2018-02-13T20:48:31.376Z,-2.70
2018-02-13T20:50:58.921Z,-2.70
2018-02-13T20:53:26.455Z,-2.70
2018-02-13T20:55:54.110Z,-2.70
2018-02-13T20:58:21.647Z,-2.70
2018-02-13T21:00:49.185Z,-2.70
2018-02-13T21:03:17.609Z,-2.70
2018-02-13T21:05:45.152Z,-2.70
2018-02-13T21:08:13.618Z,-2.70
2018-02-13T21:10:42.474Z,-2.70
2018-02-13T21:13:10.011Z,-2.70
2018-02-13T21:15:37.550Z,-2.70
2018-02-13T21:18:05.175Z,-2.70
2018-02-13T21:20:33.506Z,-2.80
2018-02-13T21:23:01.048Z,-2.80
2018-02-13T21:25:28.623Z,-2.80
2018-02-13T21:27:56.163Z,-2.80
2018-02-13T21:30:23.727Z,-2.90
2018-02-13T21:32:51.320Z,-2.90
2018-02-13T21:35:18.858Z,-3.00
2018-02-13T21:37:46.481Z,-3.00
2018-02-13T21:40:27.724Z,-3.00
2018-02-13T21:45:42.043Z,-3.10
2018-02-13T21:48:10.348Z,-3.20
2018-02-13T21:50:37.886Z,-3.20
2018-02-13T21:53:05.492Z,-3.20
2018-02-13T21:55:33.094Z,-3.20
2018-02-13T21:58:00.706Z,-3.20
2018-02-13T22:00:28.311Z,-3.20
2018-02-13T22:02:56.615Z,-3.20
2018-02-13T22:05:24.152Z,-3.20
2018-02-13T22:07:52.499Z,-3.10
2018-02-13T22:10:20.454Z,-3.20
2018-02-13T22:12:48.243Z,-3.20
2018-02-13T22:15:17.356Z,-3.20
2018-02-13T22:17:45.774Z,-3.20
2018-02-13T22:20:27.286Z,-3.20
2018-02-13T22:26:13.289Z,-3.30
2018-02-13T22:28:40.914Z,-3.40
2018-02-13T22:31:09.236Z,-3.40
2018-02-13T22:33:36.915Z,-3.40
2018-02-13T22:36:05.402Z,-3.50
2018-02-13T22:38:32.951Z,-3.50
2018-02-13T22:41:00.718Z,-3.40
2018-02-13T22:43:28.270Z,-3.40
2018-02-13T22:45:55.868Z,-3.40
2018-02-13T22:48:23.471Z,-3.30
2018-02-13T22:50:51.007Z,-3.30
2018-02-13T22:53:18.551Z,-3.30
2018-02-13T22:55:46.161Z,-3.20
2018-02-13T22:58:28.159Z,-3.20
2018-02-13T23:10:17.215Z,-3.20
2018-02-13T23:12:44.823Z,-3.80
2018-02-13T23:15:13.514Z,-3.80
2018-02-13T23:17:41.408Z,-3.80
2018-02-13T23:20:08.954Z,-3.80
2018-02-13T23:22:37.350Z,-3.80
2018-02-13T23:25:04.928Z,-3.80
2018-02-13T23:27:32.583Z,-3.80
2018-02-13T23:30:00.199Z,-3.70
2018-02-13T23:32:27.883Z,-3.80
2018-02-13T23:34:56.236Z,-3.80
2018-02-13T23:37:23.915Z,-3.80
2018-02-13T23:39:53.063Z,-3.80
2018-02-13T23:42:20.711Z,-3.80
2018-02-13T23:44:48.268Z,-3.90
2018-02-13T23:47:17.095Z,-3.80
2018-02-13T23:49:44.722Z,-3.90
2018-02-13T23:52:12.434Z,-3.90
2018-02-13T23:54:40.454Z,-3.90
2018-02-13T23:57:07.998Z,-4.00
2018-02-13T23:59:35.799Z,-3.90
